Latest Weather Observations for Cape Naturaliste

IDW60801

Issued at 4:05 pm WST Monday 20 October 2014 (issued every 30 minutes, with the page automatically refreshed every 10 minutes)

About weather observations | Map of weather stations | Latest weather observations for WA | Other Formats
Station Details ID: 009519 Name: CAPE NATURALISTE Lat: -33.54 Lon: 115.02 Height: 109.0 m
Data from the previous 72 hours. | See also: Recent months at Cape Naturaliste
Date/Time
WST
Temp
°C
App
Temp
°C
Dew
Point
Rel
Hum
%
Delta-T
°C
Wind Press
QNH
hPa
Press
MSL
hPa
Rain
since 9 am
mm
Dir
 
Spd
km/h
Gust
km/h
Spd
kts
Gust
kts
20/04:00pm 18.1 12.8 10.0 59 4.3 SW 28 39 15 21 1019.0 1018.9 0.0
20/03:30pm 18.3 13.7 10.9 62 4.0 SW 26 41 14 22 1018.8 1018.8 0.0
20/03:00pm 17.7 12.9 10.3 62 4.0 SW 26 35 14 19 1018.6 1018.6 0.0
20/02:30pm 17.6 12.5 10.5 63 3.8 SW 28 37 15 20 1018.5 1018.5 0.0
20/02:00pm 19.1 14.2 11.4 61 4.2 SSW 28 33 15 18 1018.3 1018.2 0.0
20/01:30pm 17.9 12.9 10.8 63 3.8 SSW 28 37 15 20 1018.2 1018.1 0.0
20/01:00pm 19.3 14.6 12.1 63 4.0 SSW 28 37 15 20 1018.2 1018.1 0.0
20/12:30pm 18.2 13.0 11.5 65 3.7 SSW 30 43 16 23 1018.0 1017.9 0.0
20/12:00pm 18.7 13.2 12.0 65 3.7 SSW 32 39 17 21 1017.9 1017.8 0.0
20/11:30am 17.7 12.3 12.2 70 3.1 SSW 32 41 17 22 1017.9 1017.8 0.0
20/11:00am 17.3 12.5 11.6 69 3.1 SSW 28 37 15 20 1018.1 1018.0 0.0
20/10:30am 16.9 12.0 11.4 70 3.0 SSW 28 37 15 20 1017.9 1017.8 0.0
20/10:00am 17.9 13.1 11.5 66 3.5 SSW 28 39 15 21 1017.7 1017.6 0.0
20/09:30am 17.3 12.1 11.6 69 3.1 SSW 30 39 16 21 1017.7 1017.6 0.0
20/09:00am 16.9 11.7 11.6 71 2.9 SSW 30 39 16 21 1017.6 1017.5 0.0
20/08:30am 15.9 10.2 11.3 74 2.5 SSW 32 43 17 23 1017.6 1017.5 0.0
20/08:00am 16.3 11.1 11.5 73 2.6 SSW 30 41 16 22 1017.6 1017.5 0.0
20/07:30am 15.3 10.4 11.3 77 2.2 SSW 28 37 15 20 1017.4 1017.3 0.0
20/07:00am 13.9 9.2 10.7 81 1.7 S 26 35 14 19 1017.0 1016.9 0.0
20/06:30am 12.8 7.9 10.0 83 1.4 S 26 35 14 19 1016.6 1016.5 0.0
20/06:00am 12.4 7.1 10.0 85 1.2 S 28 35 15 19 1016.4 1016.3 0.0
20/05:30am 12.6 7.0 10.1 85 1.3 SSW 30 39 16 21 1016.1 1016.0 0.0
20/05:00am 12.1 6.0 9.7 85 1.2 S 32 39 17 21 1015.7 1015.6 0.0
20/04:30am 11.7 6.6 9.1 84 1.3 S 26 33 14 18 1015.6 1015.5 0.0
20/04:00am 11.7 7.0 9.1 84 1.3 S 24 30 13 16 1015.5 1015.4 0.0
20/03:30am 11.8 6.3 9.2 84 1.3 S 28 35 15 19 1015.8 1015.7 0.0
20/03:00am 11.6 6.1 9.0 84 1.3 S 28 37 15 20 1015.9 1015.8 0.0
20/02:30am 11.7 6.2 9.1 84 1.3 S 28 35 15 19 1015.9 1015.8 0.0
20/02:00am 11.7 7.0 9.1 84 1.3 S 24 35 13 19 1016.0 1015.9 0.0
20/01:30am 11.8 7.0 9.0 83 1.4 S 24 33 13 18 1016.0 1015.9 0.0
20/01:00am 11.9 6.8 9.1 83 1.4 S 26 35 14 19 1016.2 1016.1 0.0
20/12:30am 11.9 7.1 8.9 82 1.5 S 24 32 13 17 1016.6 1016.5 0.0
20/12:00am 11.9 7.1 8.7 81 1.6 S 24 35 13 19 1017.1 1017.0 0.0
 
Date/Time
WST
Temp
°C
App
Temp
°C
Dew
Point
Rel
Hum
%
Delta-T
°C
Wind Press
QNH
hPa
Press
MSL
hPa
Rain
since 9 am
mm
Dir
 
Spd
km/h
Gust
km/h
Spd
kts
Gust
kts
19/11:30pm 11.6 6.7 8.5 81 1.5 S 24 33 13 18 1017.3 1017.2 0.0
19/11:00pm 11.9 6.2 8.4 79 1.7 S 28 39 15 21 1017.3 1017.2 0.0
19/10:30pm 11.7 5.9 7.8 77 1.9 S 28 35 15 19 1017.4 1017.3 0.0
19/10:00pm 12.1 6.3 7.8 75 2.1 S 28 37 15 20 1017.3 1017.2 0.0
19/09:30pm 12.0 5.4 7.7 75 2.1 SSE 32 41 17 22 1017.4 1017.3 0.0
19/09:00pm 11.8 6.7 7.5 75 2.1 S 24 39 13 21 1017.6 1017.5 0.0
19/08:30pm 11.8 7.0 7.3 74 2.2 S 22 30 12 16 1017.6 1017.5 0.0
19/08:00pm 11.7 8.1 6.8 72 2.3 S 15 20 8 11 1017.4 1017.3 0.0
19/07:30pm 12.2 8.3 7.1 71 2.5 SSE 17 22 9 12 1017.0 1016.9 0.0
19/07:00pm 12.9 8.7 7.4 69 2.7 S 19 24 10 13 1016.9 1016.8 0.0
19/06:30pm 13.6 9.8 7.6 67 3.0 S 17 24 9 13 1016.7 1016.6 0.0
19/06:00pm 14.3 9.2 7.6 64 3.3 SSE 24 33 13 18 1016.6 1016.5 0.0
19/05:30pm 15.3 10.2 7.6 60 3.8 SE 24 39 13 21 1016.5 1016.4 0.0
19/05:00pm 15.7 11.2 8.4 62 3.7 SSE 22 35 12 19 1016.6 1016.5 0.0
19/04:30pm 16.1 10.5 7.3 56 4.4 SE 26 35 14 19 1016.5 1016.4 0.0
19/04:00pm 18.1 13.3 8.9 55 4.8 SSE 24 33 13 18 1016.4 1016.3 0.0
19/03:30pm 17.5 12.6 8.4 55 4.7 SE 24 35 13 19 1016.3 1016.2 0.0
19/03:00pm 17.2 11.1 8.1 55 4.6 SE 30 41 16 22 1016.6 1016.5 0.0
19/02:30pm 17.2 10.7 8.1 55 4.7 SE 32 43 17 23 1016.5 1016.4 0.0
19/02:00pm 16.7 11.8 8.4 58 4.2 SE 24 35 13 19 1016.7 1016.6 0.0
19/01:30pm 17.1 11.5 8.8 58 4.3 ESE 28 37 15 20 1017.1 1017.0 0.0
19/01:00pm 16.3 11.4 8.3 59 4.1 ESE 24 37 13 20 1017.2 1017.1 0.0
19/12:30pm 16.1 11.1 8.1 59 4.1 SE 24 39 13 21 1017.3 1017.2 0.0
19/12:00pm 16.5 10.3 7.7 56 4.4 ESE 30 44 16 24 1017.3 1017.2 0.0
19/11:30am 16.5 9.4 8.0 57 4.3 ESE 35 52 19 28 1017.1 1017.0 0.0
19/11:00am 16.1 8.3 8.3 60 4.0 ESE 39 50 21 27 1017.0 1016.9 0.0
19/10:32am 16.1 9.2 8.8 62 3.8 ESE 35 54 19 29 1017.1 1017.0 0.0
19/10:30am 15.9 8.1 8.4 61 3.8 ESE 39 54 21 29 1017.2 1017.1 0.0
19/10:00am 16.7 9.9 9.1 61 3.9 ESE 35 57 19 31 1017.4 1017.3 0.0
19/09:52am 16.4 9.2 9.1 62 3.8 ESE 37 57 20 31 1017.4 1017.3 0.0
19/09:30am 13.9 6.3 7.7 66 3.1 ESE 37 50 20 27 1017.5 1017.4 0.0
19/09:01am 13.9 5.1 7.2 64 3.3 ESE 43 61 23 33 1017.5 1017.4 0.0
19/09:00am 13.9 5.1 7.4 65 3.2 ESE 43 57 23 31 1017.5 1017.4 0.0
19/08:45am 13.9 5.6 7.7 66 3.1 ESE 41 61 22 33 1017.6 1017.5 0.0
19/08:30am 13.8 5.9 8.0 68 2.9 ESE 39 52 21 28 1017.6 1017.5 0.0
19/08:00am 12.9 5.5 8.2 73 2.3 ESE 37 52 20 28 1017.7 1017.6 0.0
19/07:30am 12.0 4.8 7.5 74 2.2 SE 35 50 19 27 1017.7 1017.6 0.0
19/07:00am 11.7 4.9 7.6 76 2.0 SE 33 46 18 25 1018.0 1017.9 0.0
19/06:30am 11.8 4.6 7.5 75 2.1 SE 35 50 19 27 1018.0 1017.9 0.0
19/06:00am 11.7 4.4 7.4 75 2.1 SE 35 48 19 26 1017.8 1017.7 0.0
19/05:43am 11.6 4.3 7.3 75 2.1 SE 35 54 19 29 1017.4 1017.3 0.0
19/05:30am 11.5 3.8 7.2 75 2.1 SE 37 50 20 27 1017.1 1017.0 0.0
19/05:00am 11.6 3.5 7.1 74 2.2 SE 39 52 21 28 1016.7 1016.6 0.0
19/04:32am 11.8 3.3 7.1 73 2.3 ESE 41 59 22 32 1016.7 1016.6 0.0
19/04:30am 11.8 3.0 7.1 73 2.3 ESE 43 59 23 32 1016.6 1016.5 0.0
19/04:00am 11.8 3.7 7.1 73 2.3 SE 39 59 21 32 1017.0 1016.9 0.0
19/03:30am 11.8 4.5 7.1 73 2.3 SE 35 46 19 25 1017.2 1017.1 0.0
19/03:15am 11.8 5.9 7.3 74 2.2 SE 28 46 15 25 1017.4 1017.3 0.0
19/03:00am 11.7 6.1 7.0 73 2.3 SE 26 37 14 20 1017.6 1017.5 0.0
19/02:44am 11.7 5.7 7.0 73 2.3 SSE 28 46 15 25 1017.5 1017.4 0.0
19/02:30am 11.7 6.4 6.8 72 2.3 SSE 24 33 13 18 1017.7 1017.6 0.0
19/02:00am 11.8 6.9 6.7 71 2.4 SSE 22 30 12 16 1017.8 1017.7 0.0
19/01:30am 12.1 6.5 7.0 71 2.5 SE 26 35 14 19 1017.9 1017.8 0.0
19/01:00am 12.3 6.7 7.2 71 2.5 SE 26 39 14 21 1018.1 1018.0 0.0
19/12:30am 12.4 7.2 7.1 70 2.6 SE 24 39 13 21 1018.3 1018.2 0.0
19/12:00am 12.8 6.5 7.5 70 2.6 SE 30 44 16 24 1018.3 1018.2 0.0
 
Date/Time
WST
Temp
°C
App
Temp
°C
Dew
Point
Rel
Hum
%
Delta-T
°C
Wind Press
QNH
hPa
Press
MSL
hPa
Rain
since 9 am
mm
Dir
 
Spd
km/h
Gust
km/h
Spd
kts
Gust
kts
18/11:30pm 12.9 7.0 7.6 70 2.6 SE 28 41 15 22 1018.3 1018.2 0.0
18/11:00pm 12.9 7.4 7.6 70 2.6 SE 26 41 14 22 1018.4 1018.4 0.0
18/10:51pm 12.9 7.0 7.6 70 2.6 SE 28 46 15 25 1018.5 1018.5 0.0
18/10:30pm 13.3 7.4 7.7 69 2.8 SE 28 39 15 21 1018.6 1018.6 0.0
18/10:00pm 13.2 8.0 7.4 68 2.8 SE 24 32 13 17 1018.8 1018.8 0.0
18/09:30pm 13.2 8.0 7.4 68 2.8 SE 24 35 13 19 1018.7 1018.7 0.0
18/09:00pm 13.2 8.1 7.6 69 2.8 SE 24 35 13 19 1018.6 1018.6 0.0
18/08:30pm 13.4 8.0 7.8 69 2.8 SE 26 39 14 21 1018.4 1018.4 0.0
18/08:00pm 13.7 8.7 8.1 69 2.8 SE 24 35 13 19 1018.1 1018.0 0.0
18/07:30pm 13.8 9.2 8.2 69 2.8 SE 22 30 12 16 1017.6 1017.5 0.0
18/07:00pm 14.3 9.7 8.3 67 3.0 SE 22 32 12 17 1017.1 1017.0 0.0
18/06:30pm 14.6 10.4 8.3 66 3.2 SE 20 30 11 16 1016.7 1016.6 0.0
18/06:00pm 14.9 8.5 8.4 65 3.3 SSE 32 48 17 26 1016.0 1015.9 0.0
18/05:30pm 15.4 9.1 8.9 65 3.3 SSE 32 43 17 23 1015.5 1015.4 0.0
18/05:20pm 15.7 9.7 8.7 63 3.6 SSE 30 48 16 26 1015.4 1015.3 0.0
18/05:00pm 16.5 11.3 9.0 61 3.9 SSE 26 44 14 24 1015.3 1015.2 0.0
18/04:30pm 15.8 10.6 9.0 64 3.5 SE 26 39 14 21 1015.5 1015.4 0.0
18/04:00pm 16.0 10.6 9.4 65 3.4 SE 28 39 15 21 1015.5 1015.4 0.0
18/03:30pm 16.0 11.2 9.0 63 3.6 SE 24 43 13 23 1015.2 1015.1 0.0
18/03:00pm 16.6 10.3 9.1 61 3.9 SE 32 43 17 23 1014.6 1014.5 0.0
18/02:30pm 16.6 9.7 8.8 60 4.0 SE 35 48 19 26 1014.5 1014.4 0.0
18/02:00pm 16.9 10.7 9.3 61 4.0 SE 32 44 17 24 1014.3 1014.2 0.0
18/01:30pm 16.6 10.8 9.3 62 3.8 SE 30 41 16 22 1014.7 1014.6 0.0
18/01:13pm 17.2 11.0 9.4 60 4.1 SE 32 50 17 27 1014.8 1014.7 0.0
18/01:00pm 17.0 10.7 8.9 59 4.2 SE 32 46 17 25 1014.8 1014.7 0.0
18/12:51pm 18.2 12.8 10.8 62 4.0 SE 30 48 16 26 1014.7 1014.6 0.0
18/12:30pm 17.3 11.6 9.7 61 4.0 SE 30 43 16 23 1014.8 1014.7 0.0
18/12:00pm 17.1 10.8 9.8 62 3.9 SE 33 48 18 26 1014.7 1014.6 0.0
18/11:30am 16.5 9.7 9.4 63 3.7 SE 35 54 19 29 1014.7 1014.6 0.0
18/11:26am 16.5 10.1 9.4 63 3.7 SE 33 54 18 29 1014.7 1014.6 0.0
18/11:00am 16.7 10.5 9.9 64 3.6 SE 33 50 18 27 1014.7 1014.6 0.0
18/10:56am 16.6 10.6 10.0 65 3.5 SE 32 50 17 27 1014.7 1014.6 0.0
18/10:30am 17.3 10.8 10.4 64 3.7 SE 35 48 19 26 1014.6 1014.5 0.0
18/10:02am 16.5 10.0 10.4 67 3.2 SE 35 54 19 29 1014.3 1014.2 0.0
18/10:00am 16.2 9.2 10.1 67 3.2 SE 37 54 20 29 1014.3 1014.2 0.0
18/09:30am 15.9 8.9 10.0 68 3.1 SE 37 52 20 28 1014.1 1014.0 0.0
18/09:00am 15.2 7.8 9.8 70 2.8 SE 39 52 21 28 1013.8 1013.7 0.0
18/08:41am 15.0 7.2 9.8 71 2.7 SE 41 59 22 32 1013.6 1013.5 0.0
18/08:30am 15.1 7.0 9.9 71 2.7 SE 43 57 23 31 1013.6 1013.5 0.0
18/08:14am 14.0 6.4 9.2 73 2.5 SE 39 59 21 32 1013.4 1013.3 0.0
18/08:00am 13.8 5.7 8.6 71 2.6 SE 41 56 22 30 1013.4 1013.3 0.0
18/07:41am 14.6 6.7 9.2 70 2.8 SE 41 59 22 32 1013.2 1013.1 0.0
18/07:30am 14.3 5.9 9.1 71 2.7 SE 43 59 23 32 1013.2 1013.1 0.0
18/07:23am 14.3 6.4 9.3 72 2.6 SE 41 59 22 32 1013.2 1013.1 0.0
18/07:00am 13.0 5.0 9.1 77 2.0 SE 41 54 22 29 1013.2 1013.1 0.0
18/06:30am 12.2 4.1 8.7 79 1.8 SE 41 59 22 32 1012.9 1012.8 0.0
18/06:29am 12.1 4.0 8.6 79 1.7 SE 41 59 22 32 1012.8 1012.7 0.0
18/06:00am 11.8 4.0 8.3 79 1.7 SE 39 56 21 30 1012.7 1012.6 0.0
18/05:30am 11.8 4.4 8.5 80 1.6 SE 37 52 20 28 1012.3 1012.2 0.0
18/05:20am 11.7 4.7 8.4 80 1.6 SE 35 54 19 29 1012.3 1012.2 0.0
18/05:00am 11.9 4.2 8.6 80 1.6 SE 39 50 21 27 1012.5 1012.4 0.0
18/04:30am 11.9 5.9 8.6 80 1.6 SE 30 43 16 23 1012.9 1012.8 0.0
18/04:00am 11.8 5.8 8.5 80 1.6 SSE 30 43 16 23 1013.2 1013.1 0.0
18/03:30am 12.0 6.8 8.7 80 1.6 SE 26 37 14 20 1013.2 1013.1 0.0
18/03:00am 12.3 7.1 8.8 79 1.8 SE 26 33 14 18 1013.0 1012.9 0.0
18/02:30am 12.5 7.8 9.1 80 1.7 SSE 24 41 13 22 1013.3 1013.2 0.0
18/02:00am 12.4 8.1 9.2 81 1.6 SSE 22 32 12 17 1013.6 1013.5 0.0
18/01:30am 12.4 7.7 9.1 80 1.7 SE 24 35 13 19 1013.5 1013.4 0.0
18/01:00am 13.3 8.1 9.0 75 2.2 SE 26 37 14 20 1013.9 1013.8 0.0
18/12:30am 13.5 7.2 9.0 74 2.3 ESE 32 46 17 25 1013.7 1013.6 0.0
18/12:00am 13.7 7.1 8.5 71 2.6 SE 33 44 18 24 1013.3 1013.2 0.0
 
Date/Time
WST
Temp
°C
App
Temp
°C
Dew
Point
Rel
Hum
%
Delta-T
°C
Wind Press
QNH
hPa
Press
MSL
hPa
Rain
since 9 am
mm
Dir
 
Spd
km/h
Gust
km/h
Spd
kts
Gust
kts
17/11:30pm 13.9 7.0 8.7 71 2.6 SE 35 50 19 27 1013.3 1013.2 0.0
17/11:14pm 13.7 8.1 8.7 72 2.5 SSE 28 50 15 27 1012.5 1012.4 0.0
17/11:00pm 13.8 8.6 8.8 72 2.5 SSE 26 39 14 21 1013.4 1013.3 0.0
17/10:30pm 13.9 7.4 9.1 73 2.5 SSE 33 44 18 24 1013.3 1013.2 0.0
17/10:00pm 13.9 8.4 9.1 73 2.5 SSE 28 37 15 20 1013.4 1013.3 0.0
17/09:30pm 14.0 7.8 9.2 73 2.5 SSE 32 41 17 22 1013.5 1013.4 0.0
17/09:00pm 14.0 9.3 9.2 73 2.5 S 24 33 13 18 1014.0 1013.9 0.0
17/08:30pm 14.1 8.6 9.1 72 2.6 S 28 37 15 20 1013.8 1013.7 0.0
17/08:00pm 14.4 9.3 9.2 71 2.7 S 26 33 14 18 1013.8 1013.7 0.0
17/07:30pm 14.6 10.3 9.4 71 2.7 S 22 28 12 15 1013.8 1013.7 0.0
17/07:00pm 14.9 11.1 9.7 71 2.7 S 20 30 11 16 1013.8 1013.7 0.0
17/06:30pm 15.6 12.9 10.2 70 2.8 S 15 20 8 11 1013.7 1013.6 0.0
17/06:00pm 16.4 12.2 11.1 71 2.9 SSW 24 32 13 17 1013.7 1013.6 0.0
17/05:30pm 16.5 12.7 11.0 70 3.0 SSW 22 30 12 16 1013.8 1013.7 0.0
17/05:00pm 16.6 12.2 10.5 67 3.3 SSW 24 32 13 17 1013.8 1013.7 0.0
17/04:30pm 18.0 13.8 11.1 64 3.8 SSW 24 32 13 17 1013.9 1013.8 0.0

Other Formats:

Comma delimited format used in spreadsheet applications
http://www.bom.gov.au/fwo/IDW60801/IDW60801.94600.axf

JavaScript Object Notation format (JSON) in row-major order
http://www.bom.gov.au/fwo/IDW60801/IDW60801.94600.json